메인 페이지
METAR-TAF:

METAR-TAF

공항 :

Pensacola Regional Airport

펜서콜라, 플로리다, 미국

위도: 30-28-41N, 경도: 087-11-13W, 고도: 36m

현재 날씨관측

예보는 21분 전, 21:53시(UTC)에 발표되었습니다.
서북서16kt, 순간 최대 풍속 31kt
온도 27°C
습도 37%
기압 1006 hPa
시정: 16.1km
맑음

METAR: KPNS 312153Z 30016G31KT 10SM CLR 27/11 A2972 RMK AO2 PK WND 30031/2146 SLP066 T02720111

시각: 17:14 (22:14 UTC)

예보

예보는 2 시간 20분 전, 19:54시(UTC)에 발표되었습니다.
예보 대상 시간: 31일 20시부터 01일 18시까지 (UTC)
서북서15kt, 순간 최대 풍속 24kt
시정: 10km
고도 2400ft 상공 구름 조금
고도 3000ft 상공 구름 보통
01일 0000시부터 (UTC)
북서15kt, 순간 최대 풍속 25kt
시정: 10km
고도 12000ft 상공 구름 많음
고도 25000ft 상공 구름 많음
01일 0500시부터 (UTC)
15kt, 순간 최대 풍속 26kt
시정: 10km
고도 25000ft 상공 구름 보통
01일 1200시부터 (UTC)
10kt, 순간 최대 풍속 19kt
시정: 10km
맑음

TAF: KPNS 311954Z 3120/0118 29015G24KT P6SM FEW024 SCT030 FM010000 32015G25KT P6SM BKN120 BKN250 FM010500 35015G26KT P6SM SCT250 FM011200 36010G19KT P6SM SKC

4,000개 이상의 공항 관측 자료 및 예보 (METAR 및 TAF 보고).

지도상에서 검색 가능한 기상관측소가 노란 점과 빨간 점으로 표시되어 있습니다.

기상관측소 명을 보려면 표시 위로 마우스를 이동하세요.

날씨 관측과 예보를 보려면 클릭하세요.

지도 변경 : 확대하려면 엑스 표시가 있는 녹색 버튼, 축소하려면 빼기 표시가 있는 녹색 버튼, 다음 페이지의 지도를 보려면 녹색 화살표를 클릭하세요.


METAR-TAF: